sensor_id;sensor_type;location;lat;lon;timestamp;P1;durP1;ratioP1;P2;durP2;ratioP2
24897;SDS011;12957;49.434;8.684;2022-10-16T00:01:51;3.67;;;1.67;;
24897;SDS011;12957;49.434;8.684;2022-10-16T00:04:16;2.95;;;1.30;;
24897;SDS011;12957;49.434;8.684;2022-10-16T00:06:41;2.95;;;1.70;;
24897;SDS011;12957;49.434;8.684;2022-10-16T00:09:07;1.52;;;1.42;;
24897;SDS011;12957;49.434;8.684;2022-10-16T00:11:33;3.85;;;1.63;;
24897;SDS011;12957;49.434;8.684;2022-10-16T00:14:02;2.42;;;1.55;;
24897;SDS011;12957;49.434;8.684;2022-10-16T00:16:29;2.58;;;1.50;;
24897;SDS011;12957;49.434;8.684;2022-10-16T00:18:55;5.20;;;1.70;;
24897;SDS011;12957;49.434;8.684;2022-10-16T00:21:22;3.33;;;1.50;;
24897;SDS011;12957;49.434;8.684;2022-10-16T00:23:53;3.70;;;1.40;;
24897;SDS011;12957;49.434;8.684;2022-10-16T00:26:20;2.03;;;1.75;;
24897;SDS011;12957;49.434;8.684;2022-10-16T00:28:49;2.30;;;1.48;;
24897;SDS011;12957;49.434;8.684;2022-10-16T00:31:16;4.40;;;1.65;;
24897;SDS011;12957;49.434;8.684;2022-10-16T00:33:43;4.15;;;1.63;;
24897;SDS011;12957;49.434;8.684;2022-10-16T00:36:09;1.63;;;1.52;;
24897;SDS011;12957;49.434;8.684;2022-10-16T00:38:36;5.88;;;1.52;;
24897;SDS011;12957;49.434;8.684;2022-10-16T00:41:02;5.07;;;1.30;;
24897;SDS011;12957;49.434;8.684;2022-10-16T00:43:33;7.57;;;1.60;;
24897;SDS011;12957;49.434;8.684;2022-10-16T00:46:02;1.67;;;1.35;;
24897;SDS011;12957;49.434;8.684;2022-10-16T00:48:29;2.22;;;1.40;;
24897;SDS011;12957;49.434;8.684;2022-10-16T00:50:55;3.75;;;1.50;;
24897;SDS011;12957;49.434;8.684;2022-10-16T00:53:22;4.55;;;1.50;;
24897;SDS011;12957;49.434;8.684;2022-10-16T00:55:48;4.95;;;1.60;;
24897;SDS011;12957;49.434;8.684;2022-10-16T00:58:14;1.42;;;1.30;;
24897;SDS011;12957;49.434;8.684;2022-10-16T01:00:39;2.70;;;1.40;;
24897;SDS011;12957;49.434;8.684;2022-10-16T01:03:21;4.53;;;1.58;;
24897;SDS011;12957;49.434;8.684;2022-10-16T01:05:54;1.50;;;1.40;;
24897;SDS011;12957;49.434;8.684;2022-10-16T01:08:44;5.15;;;1.50;;
24897;SDS011;12957;49.434;8.684;2022-10-16T01:11:26;1.30;;;1.30;;
24897;SDS011;12957;49.434;8.684;2022-10-16T01:13:58;3.80;;;1.58;;
24897;SDS011;12957;49.434;8.684;2022-10-16T01:16:34;2.67;;;1.60;;
24897;SDS011;12957;49.434;8.684;2022-10-16T01:19:09;1.77;;;1.50;;
24897;SDS011;12957;49.434;8.684;2022-10-16T01:21:40;3.20;;;1.55;;
24897;SDS011;12957;49.434;8.684;2022-10-16T01:24:17;2.95;;;1.60;;
24897;SDS011;12957;49.434;8.684;2022-10-16T01:27:31;3.72;;;1.83;;
24897;SDS011;12957;49.434;8.684;2022-10-16T01:29:53;3.95;;;1.75;;
24897;SDS011;12957;49.434;8.684;2022-10-16T01:35:14;1.67;;;1.50;;
24897;SDS011;12957;49.434;8.684;2022-10-16T01:37:45;5.82;;;1.70;;
24897;SDS011;12957;49.434;8.684;2022-10-16T01:40:13;5.88;;;1.50;;
24897;SDS011;12957;49.434;8.684;2022-10-16T01:42:42;5.45;;;1.60;;
24897;SDS011;12957;49.434;8.684;2022-10-16T01:45:11;4.15;;;1.60;;
24897;SDS011;12957;49.434;8.684;2022-10-16T01:47:38;2.10;;;1.70;;
24897;SDS011;12957;49.434;8.684;2022-10-16T01:50:05;4.97;;;1.50;;
24897;SDS011;12957;49.434;8.684;2022-10-16T01:52:32;2.03;;;1.42;;
24897;SDS011;12957;49.434;8.684;2022-10-16T01:55:00;2.33;;;1.63;;
24897;SDS011;12957;49.434;8.684;2022-10-16T01:57:28;1.60;;;1.50;;
24897;SDS011;12957;49.434;8.684;2022-10-16T01:59:56;2.22;;;1.55;;
24897;SDS011;12957;49.434;8.684;2022-10-16T02:02:26;2.67;;;1.55;;
24897;SDS011;12957;49.434;8.684;2022-10-16T02:04:58;3.00;;;1.60;;
24897;SDS011;12957;49.434;8.684;2022-10-16T02:07:43;4.68;;;1.65;;
24897;SDS011;12957;49.434;8.684;2022-10-16T02:10:09;1.40;;;1.40;;
24897;SDS011;12957;49.434;8.684;2022-10-16T02:12:35;4.03;;;1.52;;
24897;SDS011;12957;49.434;8.684;2022-10-16T02:15:04;3.63;;;1.60;;
24897;SDS011;12957;49.434;8.684;2022-10-16T02:17:30;2.05;;;1.60;;
24897;SDS011;12957;49.434;8.684;2022-10-16T02:19:56;3.28;;;1.48;;
24897;SDS011;12957;49.434;8.684;2022-10-16T02:22:27;2.00;;;1.48;;
24897;SDS011;12957;49.434;8.684;2022-10-16T02:24:57;12.40;;;1.65;;
24897;SDS011;12957;49.434;8.684;2022-10-16T02:27:29;2.00;;;1.83;;
24897;SDS011;12957;49.434;8.684;2022-10-16T02:30:13;3.65;;;1.48;;
24897;SDS011;12957;49.434;8.684;2022-10-16T02:32:43;2.25;;;1.60;;
24897;SDS011;12957;49.434;8.684;2022-10-16T02:35:10;5.22;;;1.70;;
24897;SDS011;12957;49.434;8.684;2022-10-16T02:37:36;2.20;;;1.70;;
24897;SDS011;12957;49.434;8.684;2022-10-16T02:40:02;1.90;;;1.67;;
24897;SDS011;12957;49.434;8.684;2022-10-16T02:42:34;6.32;;;1.73;;
24897;SDS011;12957;49.434;8.684;2022-10-16T02:45:00;2.65;;;1.52;;
24897;SDS011;12957;49.434;8.684;2022-10-16T02:47:26;6.72;;;1.70;;
24897;SDS011;12957;49.434;8.684;2022-10-16T02:49:51;6.45;;;1.70;;
24897;SDS011;12957;49.434;8.684;2022-10-16T02:52:17;5.10;;;1.80;;
24897;SDS011;12957;49.434;8.684;2022-10-16T02:54:43;4.43;;;1.98;;
24897;SDS011;12957;49.434;8.684;2022-10-16T02:57:08;6.90;;;1.60;;
24897;SDS011;12957;49.434;8.684;2022-10-16T02:59:33;4.18;;;1.60;;
24897;SDS011;12957;49.434;8.684;2022-10-16T03:01:59;3.70;;;1.60;;
24897;SDS011;12957;49.434;8.684;2022-10-16T03:04:24;2.25;;;1.65;;
24897;SDS011;12957;49.434;8.684;2022-10-16T03:06:50;8.48;;;2.35;;
24897;SDS011;12957;49.434;8.684;2022-10-16T03:09:15;3.03;;;1.90;;
24897;SDS011;12957;49.434;8.684;2022-10-16T03:11:41;2.40;;;1.48;;
24897;SDS011;12957;49.434;8.684;2022-10-16T03:14:06;1.58;;;1.48;;
24897;SDS011;12957;49.434;8.684;2022-10-16T03:16:32;2.85;;;1.70;;
24897;SDS011;12957;49.434;8.684;2022-10-16T03:18:58;5.57;;;1.77;;
24897;SDS011;12957;49.434;8.684;2022-10-16T03:21:23;2.13;;;1.75;;
24897;SDS011;12957;49.434;8.684;2022-10-16T03:23:49;4.22;;;1.40;;
24897;SDS011;12957;49.434;8.684;2022-10-16T03:26:14;6.32;;;1.63;;
24897;SDS011;12957;49.434;8.684;2022-10-16T03:28:40;3.92;;;1.50;;
24897;SDS011;12957;49.434;8.684;2022-10-16T03:31:05;6.07;;;1.88;;
24897;SDS011;12957;49.434;8.684;2022-10-16T03:33:31;5.00;;;1.80;;
24897;SDS011;12957;49.434;8.684;2022-10-16T03:35:56;1.63;;;1.52;;
24897;SDS011;12957;49.434;8.684;2022-10-16T03:38:22;4.55;;;1.77;;
24897;SDS011;12957;49.434;8.684;2022-10-16T03:40:47;3.83;;;1.67;;
24897;SDS011;12957;49.434;8.684;2022-10-16T03:43:13;6.43;;;2.40;;
24897;SDS011;12957;49.434;8.684;2022-10-16T03:45:38;1.92;;;1.55;;
24897;SDS011;12957;49.434;8.684;2022-10-16T03:48:04;5.30;;;1.55;;
24897;SDS011;12957;49.434;8.684;2022-10-16T03:50:30;3.15;;;1.60;;
24897;SDS011;12957;49.434;8.684;2022-10-16T03:52:56;7.53;;;1.60;;
24897;SDS011;12957;49.434;8.684;2022-10-16T03:55:21;8.50;;;1.80;;
24897;SDS011;12957;49.434;8.684;2022-10-16T03:57:47;3.65;;;1.73;;
24897;SDS011;12957;49.434;8.684;2022-10-16T04:00:12;1.40;;;1.30;;
24897;SDS011;12957;49.434;8.684;2022-10-16T04:02:38;4.95;;;1.75;;
24897;SDS011;12957;49.434;8.684;2022-10-16T04:05:04;4.80;;;1.50;;
24897;SDS011;12957;49.434;8.684;2022-10-16T04:07:29;3.13;;;1.27;;
24897;SDS011;12957;49.434;8.684;2022-10-16T04:09:55;4.38;;;1.73;;
24897;SDS011;12957;49.434;8.684;2022-10-16T04:12:22;5.45;;;1.50;;
24897;SDS011;12957;49.434;8.684;2022-10-16T04:14:47;5.55;;;1.83;;
24897;SDS011;12957;49.434;8.684;2022-10-16T04:17:13;5.20;;;1.60;;
24897;SDS011;12957;49.434;8.684;2022-10-16T04:19:38;1.35;;;1.35;;
24897;SDS011;12957;49.434;8.684;2022-10-16T04:22:04;3.58;;;1.65;;
24897;SDS011;12957;49.434;8.684;2022-10-16T04:24:29;3.70;;;1.55;;
24897;SDS011;12957;49.434;8.684;2022-10-16T04:26:55;1.75;;;1.60;;
24897;SDS011;12957;49.434;8.684;2022-10-16T04:29:20;1.85;;;1.58;;
24897;SDS011;12957;49.434;8.684;2022-10-16T04:31:46;2.63;;;1.73;;
24897;SDS011;12957;49.434;8.684;2022-10-16T04:34:12;3.20;;;1.80;;
24897;SDS011;12957;49.434;8.684;2022-10-16T04:36:37;5.45;;;1.95;;
24897;SDS011;12957;49.434;8.684;2022-10-16T04:39:03;11.90;;;1.70;;
24897;SDS011;12957;49.434;8.684;2022-10-16T04:41:28;1.88;;;1.65;;
24897;SDS011;12957;49.434;8.684;2022-10-16T04:43:54;6.30;;;1.80;;
24897;SDS011;12957;49.434;8.684;2022-10-16T04:46:19;4.25;;;1.52;;
24897;SDS011;12957;49.434;8.684;2022-10-16T04:48:45;1.52;;;1.40;;
24897;SDS011;12957;49.434;8.684;2022-10-16T04:51:11;3.45;;;1.55;;
24897;SDS011;12957;49.434;8.684;2022-10-16T04:53:37;2.50;;;1.45;;
24897;SDS011;12957;49.434;8.684;2022-10-16T04:56:03;7.95;;;1.75;;
24897;SDS011;12957;49.434;8.684;2022-10-16T04:58:28;3.40;;;1.50;;
24897;SDS011;12957;49.434;8.684;2022-10-16T05:00:54;2.42;;;1.48;;
24897;SDS011;12957;49.434;8.684;2022-10-16T05:03:19;2.47;;;1.73;;
24897;SDS011;12957;49.434;8.684;2022-10-16T05:05:45;6.18;;;1.20;;
24897;SDS011;12957;49.434;8.684;2022-10-16T05:08:12;4.18;;;1.50;;
24897;SDS011;12957;49.434;8.684;2022-10-16T05:10:38;2.53;;;1.70;;
24897;SDS011;12957;49.434;8.684;2022-10-16T05:13:03;4.78;;;1.40;;
24897;SDS011;12957;49.434;8.684;2022-10-16T05:15:29;2.25;;;1.40;;
24897;SDS011;12957;49.434;8.684;2022-10-16T05:17:55;8.57;;;1.45;;
24897;SDS011;12957;49.434;8.684;2022-10-16T05:20:21;1.73;;;1.10;;
24897;SDS011;12957;49.434;8.684;2022-10-16T05:22:48;3.22;;;1.30;;
24897;SDS011;12957;49.434;8.684;2022-10-16T05:25:14;4.10;;;1.52;;
24897;SDS011;12957;49.434;8.684;2022-10-16T05:27:39;2.53;;;2.00;;
24897;SDS011;12957;49.434;8.684;2022-10-16T05:30:05;5.13;;;1.92;;
24897;SDS011;12957;49.434;8.684;2022-10-16T05:32:31;2.72;;;1.45;;
24897;SDS011;12957;49.434;8.684;2022-10-16T05:34:56;6.47;;;1.60;;
24897;SDS011;12957;49.434;8.684;2022-10-16T05:37:25;5.15;;;1.70;;
24897;SDS011;12957;49.434;8.684;2022-10-16T05:39:52;11.13;;;1.70;;
24897;SDS011;12957;49.434;8.684;2022-10-16T05:42:17;5.28;;;2.05;;
24897;SDS011;12957;49.434;8.684;2022-10-16T05:44:43;1.60;;;1.30;;
24897;SDS011;12957;49.434;8.684;2022-10-16T05:47:08;2.63;;;1.25;;
24897;SDS011;12957;49.434;8.684;2022-10-16T05:49:35;3.67;;;1.60;;
24897;SDS011;12957;49.434;8.684;2022-10-16T05:52:01;5.30;;;1.50;;
24897;SDS011;12957;49.434;8.684;2022-10-16T05:54:26;2.72;;;1.67;;
24897;SDS011;12957;49.434;8.684;2022-10-16T05:56:52;4.25;;;1.55;;
24897;SDS011;12957;49.434;8.684;2022-10-16T05:59:17;6.22;;;1.92;;
24897;SDS011;12957;49.434;8.684;2022-10-16T06:01:43;6.28;;;1.90;;
24897;SDS011;12957;49.434;8.684;2022-10-16T06:04:09;8.70;;;1.70;;
24897;SDS011;12957;49.434;8.684;2022-10-16T06:06:34;3.20;;;1.58;;
24897;SDS011;12957;49.434;8.684;2022-10-16T06:09:01;3.95;;;1.63;;
24897;SDS011;12957;49.434;8.684;2022-10-16T06:11:27;5.70;;;1.55;;
24897;SDS011;12957;49.434;8.684;2022-10-16T06:13:55;5.68;;;1.67;;
24897;SDS011;12957;49.434;8.684;2022-10-16T06:16:22;3.15;;;1.40;;
24897;SDS011;12957;49.434;8.684;2022-10-16T06:18:50;4.55;;;1.70;;
24897;SDS011;12957;49.434;8.684;2022-10-16T06:21:17;3.10;;;1.52;;
24897;SDS011;12957;49.434;8.684;2022-10-16T06:23:43;4.25;;;1.40;;
24897;SDS011;12957;49.434;8.684;2022-10-16T06:26:12;2.67;;;1.27;;
24897;SDS011;12957;49.434;8.684;2022-10-16T06:28:38;6.30;;;1.50;;
24897;SDS011;12957;49.434;8.684;2022-10-16T06:31:04;5.40;;;1.40;;
24897;SDS011;12957;49.434;8.684;2022-10-16T06:33:31;2.63;;;1.33;;
24897;SDS011;12957;49.434;8.684;2022-10-16T06:36:00;1.58;;;1.25;;
24897;SDS011;12957;49.434;8.684;2022-10-16T06:38:44;1.35;;;1.30;;
24897;SDS011;12957;49.434;8.684;2022-10-16T06:41:11;1.73;;;1.35;;
24897;SDS011;12957;49.434;8.684;2022-10-16T06:43:38;7.05;;;1.67;;
24897;SDS011;12957;49.434;8.684;2022-10-16T06:46:04;5.18;;;1.30;;
24897;SDS011;12957;49.434;8.684;2022-10-16T06:48:30;1.13;;;1.10;;
24897;SDS011;12957;49.434;8.684;2022-10-16T06:51:00;1.60;;;1.30;;
24897;SDS011;12957;49.434;8.684;2022-10-16T06:53:28;2.80;;;1.38;;
24897;SDS011;12957;49.434;8.684;2022-10-16T06:55:55;2.05;;;1.50;;
24897;SDS011;12957;49.434;8.684;2022-10-16T06:58:21;4.75;;;1.55;;
24897;SDS011;12957;49.434;8.684;2022-10-16T07:00:46;1.30;;;1.20;;
24897;SDS011;12957;49.434;8.684;2022-10-16T07:03:12;1.73;;;1.63;;
24897;SDS011;12957;49.434;8.684;2022-10-16T07:05:38;3.33;;;1.55;;
24897;SDS011;12957;49.434;8.684;2022-10-16T07:08:04;2.60;;;1.20;;
24897;SDS011;12957;49.434;8.684;2022-10-16T07:10:33;3.28;;;1.30;;
24897;SDS011;12957;49.434;8.684;2022-10-16T07:12:59;3.70;;;1.40;;
24897;SDS011;12957;49.434;8.684;2022-10-16T07:15:25;2.80;;;1.40;;
24897;SDS011;12957;49.434;8.684;2022-10-16T07:17:51;1.80;;;1.10;;
24897;SDS011;12957;49.434;8.684;2022-10-16T07:20:16;2.50;;;1.30;;
24897;SDS011;12957;49.434;8.684;2022-10-16T07:22:42;4.03;;;1.25;;
24897;SDS011;12957;49.434;8.684;2022-10-16T07:25:07;3.78;;;1.48;;
24897;SDS011;12957;49.434;8.684;2022-10-16T07:27:33;1.20;;;1.10;;
24897;SDS011;12957;49.434;8.684;2022-10-16T07:29:59;2.65;;;1.20;;
24897;SDS011;12957;49.434;8.684;2022-10-16T07:32:24;2.65;;;1.50;;
24897;SDS011;12957;49.434;8.684;2022-10-16T07:34:51;5.57;;;1.38;;
24897;SDS011;12957;49.434;8.684;2022-10-16T07:37:16;2.97;;;1.50;;
24897;SDS011;12957;49.434;8.684;2022-10-16T07:39:43;2.38;;;1.25;;
24897;SDS011;12957;49.434;8.684;2022-10-16T07:42:08;6.38;;;1.70;;
24897;SDS011;12957;49.434;8.684;2022-10-16T07:44:34;6.68;;;1.35;;
24897;SDS011;12957;49.434;8.684;2022-10-16T07:46:59;3.65;;;1.40;;
24897;SDS011;12957;49.434;8.684;2022-10-16T07:49:25;3.05;;;1.20;;
24897;SDS011;12957;49.434;8.684;2022-10-16T07:51:50;2.38;;;1.10;;
24897;SDS011;12957;49.434;8.684;2022-10-16T07:54:16;7.82;;;1.60;;
24897;SDS011;12957;49.434;8.684;2022-10-16T07:56:41;1.30;;;1.20;;
24897;SDS011;12957;49.434;8.684;2022-10-16T07:59:07;2.85;;;1.15;;
24897;SDS011;12957;49.434;8.684;2022-10-16T08:01:32;4.38;;;1.40;;
24897;SDS011;12957;49.434;8.684;2022-10-16T08:03:58;1.17;;;1.17;;
24897;SDS011;12957;49.434;8.684;2022-10-16T08:06:23;2.75;;;1.50;;
24897;SDS011;12957;49.434;8.684;2022-10-16T08:08:49;5.40;;;1.00;;
24897;SDS011;12957;49.434;8.684;2022-10-16T08:11:14;2.47;;;1.02;;
24897;SDS011;12957;49.434;8.684;2022-10-16T08:13:40;1.73;;;0.95;;
24897;SDS011;12957;49.434;8.684;2022-10-16T08:16:06;1.80;;;1.20;;
24897;SDS011;12957;49.434;8.684;2022-10-16T08:18:42;1.52;;;1.10;;
24897;SDS011;12957;49.434;8.684;2022-10-16T08:21:11;3.33;;;1.92;;
24897;SDS011;12957;49.434;8.684;2022-10-16T08:23:40;6.45;;;1.20;;
24897;SDS011;12957;49.434;8.684;2022-10-16T08:26:07;7.53;;;1.10;;
24897;SDS011;12957;49.434;8.684;2022-10-16T08:28:33;1.27;;;1.00;;
24897;SDS011;12957;49.434;8.684;2022-10-16T08:31:06;1.52;;;1.30;;
24897;SDS011;12957;49.434;8.684;2022-10-16T08:33:31;1.50;;;1.10;;
24897;SDS011;12957;49.434;8.684;2022-10-16T08:35:57;5.40;;;1.20;;
24897;SDS011;12957;49.434;8.684;2022-10-16T08:38:22;0.90;;;0.90;;
24897;SDS011;12957;49.434;8.684;2022-10-16T08:40:48;3.03;;;1.00;;
24897;SDS011;12957;49.434;8.684;2022-10-16T08:45:56;3.53;;;1.27;;
24897;SDS011;12957;49.434;8.684;2022-10-16T08:51:20;1.52;;;0.90;;
24897;SDS011;12957;49.434;8.684;2022-10-16T08:53:49;4.30;;;1.20;;
24897;SDS011;12957;49.434;8.684;2022-10-16T08:56:18;3.20;;;1.00;;
24897;SDS011;12957;49.434;8.684;2022-10-16T08:58:44;2.33;;;1.10;;
24897;SDS011;12957;49.434;8.684;2022-10-16T09:01:14;1.55;;;1.17;;
24897;SDS011;12957;49.434;8.684;2022-10-16T09:12:09;3.15;;;1.25;;
24897;SDS011;12957;49.434;8.684;2022-10-16T09:22:43;4.57;;;1.35;;
24897;SDS011;12957;49.434;8.684;2022-10-16T09:25:19;2.67;;;1.38;;
24897;SDS011;12957;49.434;8.684;2022-10-16T09:27:47;3.20;;;1.20;;
24897;SDS011;12957;49.434;8.684;2022-10-16T09:30:14;2.15;;;1.27;;
24897;SDS011;12957;49.434;8.684;2022-10-16T09:32:42;5.60;;;1.52;;
24897;SDS011;12957;49.434;8.684;2022-10-16T09:35:18;10.98;;;1.27;;
24897;SDS011;12957;49.434;8.684;2022-10-16T09:37:47;2.55;;;1.73;;
24897;SDS011;12957;49.434;8.684;2022-10-16T09:40:31;1.65;;;1.33;;
24897;SDS011;12957;49.434;8.684;2022-10-16T09:45:56;5.85;;;1.35;;
24897;SDS011;12957;49.434;8.684;2022-10-16T09:48:23;2.90;;;1.33;;
24897;SDS011;12957;49.434;8.684;2022-10-16T09:50:55;3.35;;;1.30;;
24897;SDS011;12957;49.434;8.684;2022-10-16T09:53:25;4.63;;;1.13;;
24897;SDS011;12957;49.434;8.684;2022-10-16T09:55:53;4.80;;;1.50;;
24897;SDS011;12957;49.434;8.684;2022-10-16T09:58:21;1.27;;;1.10;;
24897;SDS011;12957;49.434;8.684;2022-10-16T10:00:51;2.80;;;1.58;;
24897;SDS011;12957;49.434;8.684;2022-10-16T10:03:50;1.80;;;1.20;;
24897;SDS011;12957;49.434;8.684;2022-10-16T10:08:54;1.45;;;1.23;;
24897;SDS011;12957;49.434;8.684;2022-10-16T10:14:15;1.77;;;1.20;;
24897;SDS011;12957;49.434;8.684;2022-10-16T10:16:43;4.85;;;1.20;;
24897;SDS011;12957;49.434;8.684;2022-10-16T10:19:19;3.47;;;1.40;;
24897;SDS011;12957;49.434;8.684;2022-10-16T10:21:46;1.85;;;1.20;;
24897;SDS011;12957;49.434;8.684;2022-10-16T10:24:15;3.42;;;1.65;;
24897;SDS011;12957;49.434;8.684;2022-10-16T10:26:43;2.35;;;1.38;;
24897;SDS011;12957;49.434;8.684;2022-10-16T10:32:21;4.97;;;1.30;;
24897;SDS011;12957;49.434;8.684;2022-10-16T10:35:22;1.90;;;1.38;;
24897;SDS011;12957;49.434;8.684;2022-10-16T10:57:15;9.13;;;1.50;;
24897;SDS011;12957;49.434;8.684;2022-10-16T11:00:00;2.45;;;1.40;;
24897;SDS011;12957;49.434;8.684;2022-10-16T11:07:54;2.72;;;1.63;;
24897;SDS011;12957;49.434;8.684;2022-10-16T11:13:21;6.63;;;1.70;;
24897;SDS011;12957;49.434;8.684;2022-10-16T11:16:10;2.42;;;1.58;;
24897;SDS011;12957;49.434;8.684;2022-10-16T11:21:13;8.27;;;1.60;;
24897;SDS011;12957;49.434;8.684;2022-10-16T11:23:43;2.65;;;1.48;;
24897;SDS011;12957;49.434;8.684;2022-10-16T11:26:34;4.28;;;1.40;;
24897;SDS011;12957;49.434;8.684;2022-10-16T11:29:01;5.10;;;1.20;;
24897;SDS011;12957;49.434;8.684;2022-10-16T11:31:32;1.60;;;1.50;;
24897;SDS011;12957;49.434;8.684;2022-10-16T11:36:47;2.00;;;1.55;;
24897;SDS011;12957;49.434;8.684;2022-10-16T11:45:08;3.42;;;1.30;;
24897;SDS011;12957;49.434;8.684;2022-10-16T11:47:24;2.05;;;1.60;;
24897;SDS011;12957;49.434;8.684;2022-10-16T11:55:37;2.42;;;1.60;;
24897;SDS011;12957;49.434;8.684;2022-10-16T11:58:12;6.85;;;1.67;;
24897;SDS011;12957;49.434;8.684;2022-10-16T12:06:02;3.55;;;1.60;;
24897;SDS011;12957;49.434;8.684;2022-10-16T12:08:43;1.70;;;1.60;;
24897;SDS011;12957;49.434;8.684;2022-10-16T12:11:19;2.03;;;1.60;;
24897;SDS011;12957;49.434;8.684;2022-10-16T12:13:49;2.85;;;1.40;;
24897;SDS011;12957;49.434;8.684;2022-10-16T12:18:41;3.88;;;1.40;;
24897;SDS011;12957;49.434;8.684;2022-10-16T12:21:08;3.97;;;1.50;;
24897;SDS011;12957;49.434;8.684;2022-10-16T12:26:29;3.70;;;1.58;;
24897;SDS011;12957;49.434;8.684;2022-10-16T12:29:08;1.52;;;1.35;;
24897;SDS011;12957;49.434;8.684;2022-10-16T12:31:51;1.63;;;1.40;;
24897;SDS011;12957;49.434;8.684;2022-10-16T12:34:37;5.65;;;1.80;;
24897;SDS011;12957;49.434;8.684;2022-10-16T12:37:08;4.80;;;1.50;;
24897;SDS011;12957;49.434;8.684;2022-10-16T12:39:36;1.40;;;1.30;;
24897;SDS011;12957;49.434;8.684;2022-10-16T12:42:19;1.60;;;1.35;;
24897;SDS011;12957;49.434;8.684;2022-10-16T12:44:48;7.63;;;1.55;;
24897;SDS011;12957;49.434;8.684;2022-10-16T12:47:20;1.33;;;1.20;;
24897;SDS011;12957;49.434;8.684;2022-10-16T12:49:50;1.65;;;1.50;;
24897;SDS011;12957;49.434;8.684;2022-10-16T12:52:23;10.80;;;2.30;;
24897;SDS011;12957;49.434;8.684;2022-10-16T12:54:50;7.70;;;1.83;;
24897;SDS011;12957;49.434;8.684;2022-10-16T13:03:03;5.43;;;1.60;;
24897;SDS011;12957;49.434;8.684;2022-10-16T13:08:46;6.07;;;1.60;;
24897;SDS011;12957;49.434;8.684;2022-10-16T13:17:06;5.80;;;1.50;;
24897;SDS011;12957;49.434;8.684;2022-10-16T13:19:44;8.38;;;1.70;;
24897;SDS011;12957;49.434;8.684;2022-10-16T13:27:52;7.15;;;1.60;;
24897;SDS011;12957;49.434;8.684;2022-10-16T13:30:42;3.90;;;1.65;;
24897;SDS011;12957;49.434;8.684;2022-10-16T13:35:53;6.57;;;1.60;;
24897;SDS011;12957;49.434;8.684;2022-10-16T13:38:21;5.45;;;1.40;;
24897;SDS011;12957;49.434;8.684;2022-10-16T13:41:03;4.88;;;1.50;;
24897;SDS011;12957;49.434;8.684;2022-10-16T13:46:03;3.42;;;2.10;;
24897;SDS011;12957;49.434;8.684;2022-10-16T13:48:30;10.77;;;2.08;;
24897;SDS011;12957;49.434;8.684;2022-10-16T13:51:00;4.25;;;2.47;;
24897;SDS011;12957;49.434;8.684;2022-10-16T13:53:27;6.80;;;2.47;;
24897;SDS011;12957;49.434;8.684;2022-10-16T13:55:55;4.18;;;1.90;;
24897;SDS011;12957;49.434;8.684;2022-10-16T13:58:21;5.45;;;1.70;;
24897;SDS011;12957;49.434;8.684;2022-10-16T14:00:57;2.65;;;1.80;;
24897;SDS011;12957;49.434;8.684;2022-10-16T14:03:24;7.32;;;1.80;;
24897;SDS011;12957;49.434;8.684;2022-10-16T14:05:51;3.90;;;1.80;;
24897;SDS011;12957;49.434;8.684;2022-10-16T14:08:18;8.38;;;1.73;;
24897;SDS011;12957;49.434;8.684;2022-10-16T14:10:47;7.07;;;1.63;;
24897;SDS011;12957;49.434;8.684;2022-10-16T14:13:14;4.50;;;2.05;;
24897;SDS011;12957;49.434;8.684;2022-10-16T14:15:45;2.40;;;1.60;;
24897;SDS011;12957;49.434;8.684;2022-10-16T14:18:20;7.18;;;1.70;;
24897;SDS011;12957;49.434;8.684;2022-10-16T14:20:47;5.40;;;1.50;;
24897;SDS011;12957;49.434;8.684;2022-10-16T14:23:23;7.65;;;1.85;;
24897;SDS011;12957;49.434;8.684;2022-10-16T14:25:53;4.13;;;2.38;;
24897;SDS011;12957;49.434;8.684;2022-10-16T14:28:20;4.57;;;2.42;;
24897;SDS011;12957;49.434;8.684;2022-10-16T14:30:54;6.38;;;2.38;;
24897;SDS011;12957;49.434;8.684;2022-10-16T14:35:46;6.80;;;1.60;;
24897;SDS011;12957;49.434;8.684;2022-10-16T14:38:17;5.60;;;1.65;;
24897;SDS011;12957;49.434;8.684;2022-10-16T14:40:46;5.65;;;2.15;;
24897;SDS011;12957;49.434;8.684;2022-10-16T14:43:20;4.10;;;1.80;;
24897;SDS011;12957;49.434;8.684;2022-10-16T14:45:50;2.80;;;1.98;;
24897;SDS011;12957;49.434;8.684;2022-10-16T14:48:17;6.07;;;2.20;;
24897;SDS011;12957;49.434;8.684;2022-10-16T14:50:44;12.52;;;2.10;;
24897;SDS011;12957;49.434;8.684;2022-10-16T14:53:11;3.40;;;1.67;;
24897;SDS011;12957;49.434;8.684;2022-10-16T14:55:37;3.17;;;1.85;;
24897;SDS011;12957;49.434;8.684;2022-10-16T14:58:03;7.97;;;2.45;;
24897;SDS011;12957;49.434;8.684;2022-10-16T15:00:28;9.05;;;2.60;;
24897;SDS011;12957;49.434;8.684;2022-10-16T15:02:53;17.83;;;2.05;;
24897;SDS011;12957;49.434;8.684;2022-10-16T15:05:26;6.95;;;2.00;;
24897;SDS011;12957;49.434;8.684;2022-10-16T15:07:53;10.05;;;1.70;;
24897;SDS011;12957;49.434;8.684;2022-10-16T15:10:23;6.28;;;1.60;;
24897;SDS011;12957;49.434;8.684;2022-10-16T15:12:49;4.40;;;1.90;;
24897;SDS011;12957;49.434;8.684;2022-10-16T15:15:19;4.50;;;1.85;;
24897;SDS011;12957;49.434;8.684;2022-10-16T15:17:52;6.57;;;2.17;;
24897;SDS011;12957;49.434;8.684;2022-10-16T15:20:21;5.95;;;2.22;;
24897;SDS011;12957;49.434;8.684;2022-10-16T15:22:47;9.68;;;2.03;;
24897;SDS011;12957;49.434;8.684;2022-10-16T15:25:18;5.97;;;1.70;;
24897;SDS011;12957;49.434;8.684;2022-10-16T15:27:51;5.38;;;1.90;;
24897;SDS011;12957;49.434;8.684;2022-10-16T15:30:16;4.78;;;3.00;;
24897;SDS011;12957;49.434;8.684;2022-10-16T15:32:42;3.65;;;1.90;;
24897;SDS011;12957;49.434;8.684;2022-10-16T15:35:08;4.70;;;1.70;;
24897;SDS011;12957;49.434;8.684;2022-10-16T15:37:34;2.00;;;1.90;;
24897;SDS011;12957;49.434;8.684;2022-10-16T15:39:59;4.30;;;1.60;;
24897;SDS011;12957;49.434;8.684;2022-10-16T15:42:25;10.48;;;1.88;;
24897;SDS011;12957;49.434;8.684;2022-10-16T15:44:50;8.05;;;1.90;;
24897;SDS011;12957;49.434;8.684;2022-10-16T15:47:16;3.25;;;1.88;;
24897;SDS011;12957;49.434;8.684;2022-10-16T15:49:41;4.30;;;1.98;;
24897;SDS011;12957;49.434;8.684;2022-10-16T15:52:07;11.38;;;2.20;;
24897;SDS011;12957;49.434;8.684;2022-10-16T15:54:32;5.18;;;2.20;;
24897;SDS011;12957;49.434;8.684;2022-10-16T15:56:58;2.80;;;2.20;;
24897;SDS011;12957;49.434;8.684;2022-10-16T15:59:23;9.13;;;2.00;;
24897;SDS011;12957;49.434;8.684;2022-10-16T16:01:49;11.07;;;1.90;;
24897;SDS011;12957;49.434;8.684;2022-10-16T16:04:14;6.47;;;2.03;;
24897;SDS011;12957;49.434;8.684;2022-10-16T16:06:41;7.93;;;1.80;;
24897;SDS011;12957;49.434;8.684;2022-10-16T16:09:09;5.35;;;1.70;;
24897;SDS011;12957;49.434;8.684;2022-10-16T16:11:36;3.35;;;1.90;;
24897;SDS011;12957;49.434;8.684;2022-10-16T16:14:04;14.65;;;3.38;;
24897;SDS011;12957;49.434;8.684;2022-10-16T16:16:30;12.35;;;2.30;;
24897;SDS011;12957;49.434;8.684;2022-10-16T16:18:56;6.15;;;1.95;;
24897;SDS011;12957;49.434;8.684;2022-10-16T16:21:22;9.02;;;2.60;;
24897;SDS011;12957;49.434;8.684;2022-10-16T16:23:47;8.50;;;3.55;;
24897;SDS011;12957;49.434;8.684;2022-10-16T16:26:14;3.92;;;2.75;;
24897;SDS011;12957;49.434;8.684;2022-10-16T16:28:53;10.23;;;4.32;;
24897;SDS011;12957;49.434;8.684;2022-10-16T16:31:19;6.03;;;2.53;;
24897;SDS011;12957;49.434;8.684;2022-10-16T16:33:44;4.63;;;1.90;;
24897;SDS011;12957;49.434;8.684;2022-10-16T16:36:11;4.63;;;1.90;;
24897;SDS011;12957;49.434;8.684;2022-10-16T16:38:37;16.92;;;2.15;;
24897;SDS011;12957;49.434;8.684;2022-10-16T16:41:12;6.13;;;2.33;;
24897;SDS011;12957;49.434;8.684;2022-10-16T16:43:39;7.00;;;1.83;;
24897;SDS011;12957;49.434;8.684;2022-10-16T16:46:05;4.65;;;1.95;;
24897;SDS011;12957;49.434;8.684;2022-10-16T16:48:31;7.18;;;1.60;;
24897;SDS011;12957;49.434;8.684;2022-10-16T16:50:56;8.18;;;2.20;;
24897;SDS011;12957;49.434;8.684;2022-10-16T16:53:22;5.68;;;1.85;;
24897;SDS011;12957;49.434;8.684;2022-10-16T16:55:48;4.25;;;1.65;;